Time;durP1;ratioP1;P1;durP2;ratioP2;P2;SDS_P1;SDS_P2;PMS_P1;PMS_P2;Temp;Humidity;BMP_temperature;BMP_pressure;BME280_temperature;BME280_humidity;BME280_pressure;Samples;Min_cycle;Max_cycle;Signal;HPM_P1;HPM_P2
2022/07/16 00:01:26;;;;;;;;;6.75;6.75;;;;;25.12;40.33;100810.56;146607;695;46029;-72
2022/07/16 00:04:19;;;;;;;;;8.75;6.75;;;;;25.07;40.72;100807.94;146606;637;46018;-73
2022/07/16 00:07:10;;;;;;;;;6.00;6.00;;;;;25.06;40.83;100818.56;146605;597;46914;-73
2022/07/16 00:10:03;;;;;;;;;6.50;5.75;;;;;25.05;40.40;100815.06;146608;570;46008;-71
2022/07/16 00:12:55;;;;;;;;;6.75;6.00;;;;;25.05;40.82;100811.53;146601;573;48914;-71
2022/07/16 00:15:47;;;;;;;;;6.00;6.00;;;;;25.03;40.45;100808.00;146607;689;46010;-71
2022/07/16 00:21:53;;;;;;;;;6.00;6.00;;;;;24.98;41.37;100825.69;146607;604;46018;-75
2022/07/16 00:24:44;;;;;;;;;7.00;7.00;;;;;24.87;41.00;100821.34;146606;656;46018;-74
2022/07/16 00:27:37;;;;;;;;;5.75;5.00;;;;;24.83;41.76;100827.56;146608;613;46008;-71
2022/07/16 00:30:29;;;;;;;;;7.75;6.75;;;;;24.79;41.48;100827.56;146608;686;45018;-70
2022/07/16 00:33:21;;;;;;;;;8.50;5.25;;;;;24.77;41.14;100822.28;146609;580;46008;-70
2022/07/16 00:36:13;;;;;;;;;5.75;5.75;;;;;24.79;41.39;100822.28;146604;583;46885;-71
2022/07/16 00:39:06;;;;;;;;;6.25;6.25;;;;;24.80;42.11;100824.94;146607;585;46018;-70
2022/07/16 00:41:58;;;;;;;;;7.00;7.00;;;;;24.74;41.41;100827.63;146606;578;46012;-71
2022/07/16 00:44:50;;;;;;;;;6.75;6.00;;;;;24.72;41.41;100825.84;146606;628;46008;-71
2022/07/16 00:47:43;;;;;;;;;5.75;5.75;;;;;24.74;41.85;100824.97;146606;661;46018;-71
2022/07/16 00:50:36;;;;;;;;;7.50;6.25;;;;;24.75;42.06;100824.06;146608;602;46008;-71
2022/07/16 00:53:28;;;;;;;;;6.25;6.25;;;;;24.76;42.48;100814.34;146605;571;46010;-71
2022/07/16 00:56:22;;;;;;;;;6.00;6.00;;;;;24.73;42.31;100817.88;146609;570;45019;-72
2022/07/16 00:59:16;;;;;;;;;7.25;6.75;;;;;24.70;42.92;100819.66;146607;601;46010;-72
2022/07/16 01:02:08;;;;;;;;;8.25;6.50;;;;;23.54;42.95;100627.63;146609;572;47008;-74
2022/07/16 01:05:00;;;;;;;;;6.75;6.00;;;;;24.58;43.11;100813.56;146606;569;46019;-73
2022/07/16 01:07:53;;;;;;;;;7.75;5.25;;;;;24.52;42.64;100818.88;146606;659;47008;-75
2022/07/16 01:10:45;;;;;;;;;5.50;5.25;;;;;24.50;43.55;100814.47;146608;586;46010;-71
2022/07/16 01:13:39;;;;;;;;;7.00;7.00;;;;;24.43;42.95;100806.56;146607;570;46008;-80
2022/07/16 01:16:31;;;;;;;;;7.00;6.75;;;;;24.45;43.06;100806.53;146606;641;46010;-73
2022/07/16 01:19:23;;;;;;;;;6.50;6.50;;;;;24.45;43.15;100811.84;146608;727;46010;-74
2022/07/16 01:22:25;;;;;;;;;6.75;6.00;;;;;24.44;43.11;100812.72;146607;633;46012;-73
2022/07/16 01:25:17;;;;;;;;;6.50;6.50;;;;;24.40;43.71;100816.25;146609;603;46019;-73
2022/07/16 01:28:09;;;;;;;;;6.25;6.25;;;;;24.32;44.97;100813.63;146606;707;46018;-73
2022/07/16 01:31:02;;;;;;;;;6.75;6.75;;;;;24.22;44.54;100821.62;146610;650;45046;-73
2022/07/16 01:37:07;;;;;;;;;6.00;6.00;;;;;24.11;45.28;100811.03;146606;659;46018;-76
2022/07/16 01:39:59;;;;;;;;;8.00;8.00;;;;;24.02;45.68;100816.34;146605;607;46914;-75
2022/07/16 01:42:51;;;;;;;;;7.75;6.50;;;;;23.94;45.17;100816.37;146607;657;46026;-72
2022/07/16 01:45:43;;;;;;;;;7.25;7.25;;;;;23.86;45.84;100820.81;146607;728;46018;-73
2022/07/16 01:48:36;;;;;;;;;8.00;7.00;;;;;23.79;47.02;100808.47;146607;647;46009;-73
2022/07/16 01:51:28;;;;;;;;;8.00;8.00;;;;;23.71;46.10;100821.75;146605;661;46010;-71
2022/07/16 01:54:20;;;;;;;;;8.25;8.00;;;;;22.51;46.42;100620.66;146609;564;46008;-79
2022/07/16 01:57:12;;;;;;;;;8.00;8.00;;;;;23.63;46.01;100828.75;146606;584;46914;-75
2022/07/16 02:00:04;;;;;;;;;7.25;6.00;;;;;23.63;45.73;100819.03;146608;672;47008;-73
2022/07/16 02:02:56;;;;;;;;;7.25;7.25;;;;;23.64;45.72;100823.44;146604;650;46019;-73
2022/07/16 02:05:49;;;;;;;;;5.75;5.75;;;;;23.67;46.45;100819.91;146607;563;47008;-73
2022/07/16 02:08:41;;;;;;;;;10.25;9.25;;;;;23.56;46.71;100808.47;146605;581;46018;-73
2022/07/16 02:11:33;;;;;;;;;8.00;7.00;;;;;23.59;46.26;100822.59;146607;649;46010;-72
2022/07/16 02:14:25;;;;;;;;;8.00;7.25;;;;;23.56;46.91;100824.34;146605;593;47010;-71
2022/07/16 02:17:17;;;;;;;;;8.00;7.50;;;;;23.52;46.32;100824.34;146608;609;46008;-71
2022/07/16 02:20:11;;;;;;;;;7.75;6.75;;;;;23.50;45.36;100827.88;146604;644;46018;-72
2022/07/16 02:23:03;;;;;;;;;10.00;8.75;;;;;23.51;46.42;100825.22;146609;571;46018;-71
2022/07/16 02:25:55;;;;;;;;;9.25;7.25;;;;;23.51;46.30;100822.56;146604;569;46915;-73
2022/07/16 02:28:48;;;;;;;;;7.25;7.25;;;;;23.40;46.34;100804.97;146607;578;46008;-73
2022/07/16 02:31:40;;;;;;;;;10.00;8.50;;;;;23.47;46.80;100833.19;146603;578;46019;-77
2022/07/16 02:34:32;;;;;;;;;7.50;7.50;;;;;23.45;47.49;100841.09;146608;594;46008;-73
2022/07/16 02:37:24;;;;;;;;;7.50;7.50;;;;;22.25;46.56;100632.97;146603;583;46032;-74
2022/07/16 02:40:17;;;;;;;;;9.75;9.25;;;;;23.39;46.93;100838.44;146605;678;46018;-74
2022/07/16 02:43:10;;;;;;;;;10.75;8.25;;;;;23.42;47.99;100841.09;146605;660;47010;-73
2022/07/16 02:46:02;;;;;;;;;7.50;7.50;;;;;23.39;47.64;100834.94;146608;626;46010;-73
2022/07/16 02:48:55;;;;;;;;;8.25;8.25;;;;;23.30;47.43;100841.09;146605;572;46018;-72
2022/07/16 02:51:48;;;;;;;;;8.75;7.75;;;;;23.36;46.95;100834.91;146608;579;46018;-78
2022/07/16 02:55:01;;;;;;;;;10.75;10.25;;;;;23.40;45.68;100850.81;146603;575;46019;-80
2022/07/16 02:57:53;;;;;;;;;10.25;10.25;;;;;23.45;47.20;100848.16;146607;581;47008;-71
2022/07/16 03:00:45;;;;;;;;;10.25;9.50;;;;;23.44;47.93;100851.69;146603;581;46019;-72
2022/07/16 03:03:38;;;;;;;;;7.25;6.50;;;;;23.34;47.25;100852.59;146605;665;47008;-77
2022/07/16 03:06:31;;;;;;;;;9.00;9.00;;;;;23.34;47.83;100847.28;146602;570;46018;-76
2022/07/16 03:09:23;;;;;;;;;9.75;8.75;;;;;23.29;48.07;100841.97;146608;564;46008;-72
2022/07/16 03:12:15;;;;;;;;;8.25;8.25;;;;;23.21;48.13;100836.69;146605;604;46914;-72
2022/07/16 03:15:09;;;;;;;;;10.50;9.75;;;;;23.20;47.82;100834.91;146608;581;46008;-76
2022/07/16 03:18:01;;;;;;;;;10.25;9.50;;;;;23.10;48.57;100830.50;146603;583;47010;-76
2022/07/16 03:20:53;;;;;;;;;9.50;9.00;;;;;23.17;49.64;100844.59;146607;661;46026;-76
2022/07/16 03:23:45;;;;;;;;;9.25;9.25;;;;;23.11;48.23;100837.53;146605;574;46914;-74
2022/07/16 03:26:37;;;;;;;;;13.00;11.25;;;;;23.11;49.35;100834.00;146607;569;46018;-72
2022/07/16 03:29:29;;;;;;;;;12.50;12.00;;;;;21.90;48.82;100636.38;146605;587;46010;-73
2022/07/16 03:32:23;;;;;;;;;10.00;10.00;;;;;23.12;49.63;100841.09;146602;582;46916;-72
2022/07/16 03:39:02;;;;;;;;;12.25;10.50;;;;;23.13;48.92;100840.19;146608;576;46008;-72
2022/07/16 03:41:54;;;;;;;;;10.25;10.00;;;;;23.16;48.60;100824.34;146605;594;47012;-73
2022/07/16 03:44:46;;;;;;;;;10.75;10.75;;;;;23.22;47.92;100830.50;146608;640;46008;-72
2022/07/16 03:47:38;;;;;;;;;11.00;11.00;;;;;23.32;47.98;100833.16;146606;611;46010;-73
2022/07/16 03:50:30;;;;;;;;;13.00;13.00;;;;;22.24;47.91;100633.81;146607;586;46018;-72
2022/07/16 03:53:22;;;;;;;;;12.00;12.00;;;;;23.37;49.86;100831.41;146607;643;46011;-72
2022/07/16 03:56:14;;;;;;;;;12.25;11.25;;;;;23.31;49.64;100834.94;146610;571;46008;-72
2022/07/16 03:59:06;;;;;;;;;12.75;12.00;;;;;23.25;49.28;100835.81;146607;563;46010;-74
2022/07/16 04:01:59;;;;;;;;;12.25;11.25;;;;;22.15;50.13;100655.81;146606;617;47008;-72
2022/07/16 04:04:51;;;;;;;;;12.75;12.00;;;;;23.23;49.18;100844.63;146604;578;46018;-71
2022/07/16 04:07:44;;;;;;;;;12.25;10.00;;;;;23.28;48.80;100845.53;146609;640;46009;-71
2022/07/16 04:10:35;;;;;;;;;9.75;9.75;;;;;23.33;48.96;100856.09;146607;590;46010;-70
2022/07/16 04:13:28;;;;;;;;;11.25;11.00;;;;;23.38;47.44;100847.28;146608;591;46008;-72
2022/07/16 04:16:20;;;;;;;;;10.75;9.75;;;;;23.51;47.30;100850.81;146605;618;46023;-71
2022/07/16 04:19:12;;;;;;;;;9.75;9.50;;;;;23.74;46.88;100854.37;146608;584;46008;-70
2022/07/16 04:22:04;;;;;;;;;10.00;9.25;;;;;24.01;47.47;100856.97;146603;565;46027;-70
2022/07/16 04:24:57;;;;;;;;;10.50;10.00;;;;;23.18;47.11;100666.53;146606;564;46019;-70
2022/07/16 04:27:49;;;;;;;;;10.50;10.50;;;;;23.58;47.23;100703.47;146607;563;46025;-71
2022/07/16 04:30:41;;;;;;;;;10.75;10.25;;;;;24.65;47.23;100855.06;146610;597;47008;-74
2022/07/16 04:33:34;;;;;;;;;10.50;9.25;;;;;24.82;46.50;100857.59;146606;582;46012;-74
2022/07/16 04:36:26;;;;;;;;;11.50;9.25;;;;;25.03;46.19;100861.91;146606;615;46018;-73
2022/07/16 04:39:18;;;;;;;;;11.25;10.50;;;;;25.25;46.30;100865.34;146604;572;46019;-73
2022/07/16 04:42:10;;;;;;;;;9.50;9.50;;;;;25.46;46.23;100861.66;146607;604;46008;-74
2022/07/16 04:45:02;;;;;;;;;8.75;8.75;;;;;25.59;45.07;100859.78;146604;564;46028;-74
2022/07/16 04:47:55;;;;;;;;;8.50;8.50;;;;;25.75;45.77;100872.03;146608;579;46008;-72
2022/07/16 04:51:14;;;;;;;;;10.75;9.50;;;;;24.10;43.67;100566.47;146606;570;46019;-73
2022/07/16 04:54:06;;;;;;;;;11.25;9.75;;;;;26.11;44.17;100862.00;146607;588;46018;-71
2022/07/16 04:57:04;;;;;;;;;8.75;8.50;;;;;26.42;43.52;100881.16;146605;592;46010;-72
2022/07/16 04:59:59;;;;;;;;;10.00;9.00;;;;;26.66;43.09;100873.78;146606;587;46008;-75
2022/07/16 05:02:57;;;;;;;;;10.00;9.75;;;;;26.89;42.26;100877.03;146605;579;46018;-74
2022/07/16 05:05:49;;;;;;;;;10.25;9.00;;;;;26.15;42.64;100714.00;146606;566;46010;-75
2022/07/16 05:08:44;;;;;;;;;9.50;9.50;;;;;27.32;41.65;100886.19;146608;676;46010;-73
2022/07/16 05:11:36;;;;;;;;;11.75;11.75;;;;;27.51;40.14;100879.72;146606;591;46018;-76
2022/07/16 05:14:31;;;;;;;;;9.25;8.25;;;;;27.67;39.36;100890.09;146607;626;46010;-77
2022/07/16 05:17:29;;;;;;;;;8.00;8.00;;;;;27.80;40.13;100891.69;146606;584;46010;-72
2022/07/16 05:20:38;;;;;;;;;11.25;10.25;;;;;27.99;40.23;100893.12;146604;585;46018;-72
2022/07/16 05:23:30;;;;;;;;;10.00;9.50;;;;;28.18;39.65;100893.66;146607;603;46010;-72
2022/07/16 05:26:22;;;;;;;;;12.00;10.75;;;;;28.38;39.54;100903.06;146606;563;46916;-73
2022/07/16 05:29:14;;;;;;;;;10.50;10.50;;;;;28.48;38.40;100892.22;146608;598;47008;-74
2022/07/16 05:32:08;;;;;;;;;11.50;9.50;;;;;28.58;38.79;100905.38;146604;578;46018;-75
2022/07/16 05:35:23;;;;;;;;;10.50;9.75;;;;;28.64;38.48;100903.47;146604;614;46010;-76
2022/07/16 05:38:15;;;;;;;;;10.00;8.50;;;;;28.77;38.37;100904.06;146606;598;46018;-73
2022/07/16 05:41:07;;;;;;;;;10.75;10.00;;;;;28.90;38.95;100904.69;146607;597;46008;-73
2022/07/16 05:43:59;;;;;;;;;10.00;8.75;;;;;29.09;38.15;100902.53;146607;597;46010;-73
2022/07/16 05:46:52;;;;;;;;;6.75;5.75;;;;;29.26;37.85;100904.81;146606;736;46018;-73
2022/07/16 05:49:44;;;;;;;;;12.25;11.00;;;;;29.37;37.72;100914.31;146605;564;46018;-75
2022/07/16 05:52:37;;;;;;;;;9.00;8.00;;;;;29.47;38.29;100917.66;146606;693;46008;-74
2022/07/16 05:55:29;;;;;;;;;10.50;10.50;;;;;29.57;36.96;100915.66;146605;578;46018;-75
2022/07/16 05:58:21;;;;;;;;;10.50;9.50;;;;;29.68;38.12;100913.62;146609;599;46019;-75
2022/07/16 06:01:13;;;;;;;;;10.75;9.75;;;;;28.80;37.13;100741.22;146597;575;48916;-74
2022/07/16 06:04:06;;;;;;;;;8.25;8.25;;;;;29.94;37.34;100910.31;146605;599;46018;-76
2022/07/16 06:06:59;;;;;;;;;9.00;9.00;;;;;30.12;36.92;100912.47;146604;684;46019;-76
2022/07/16 06:09:51;;;;;;;;;11.00;11.00;;;;;30.23;36.75;100906.88;146607;606;46018;-76
2022/07/16 06:12:43;;;;;;;;;11.75;10.75;;;;;30.29;37.02;100909.38;146605;569;47010;-76
2022/07/16 06:15:35;;;;;;;;;11.25;11.00;;;;;30.36;36.93;100913.62;146609;714;46008;-76
2022/07/16 06:18:28;;;;;;;;;13.75;12.00;;;;;30.48;36.26;100914.22;146603;583;46018;-74
2022/07/16 06:21:20;;;;;;;;;12.75;10.00;;;;;30.61;36.17;100904.91;146606;579;46019;-75
2022/07/16 06:24:12;;;;;;;;;10.50;10.50;;;;;30.69;35.29;100907.38;146605;582;46018;-75
2022/07/16 06:27:05;;;;;;;;;12.00;10.50;;;;;30.78;36.46;100908.03;146607;578;46007;-75
2022/07/16 06:29:57;;;;;;;;;9.75;9.75;;;;;30.91;36.31;100911.22;146602;578;46917;-75
2022/07/16 06:32:49;;;;;;;;;10.50;9.75;;;;;31.01;36.28;100909.13;146604;602;46018;-76
2022/07/16 06:35:41;;;;;;;;;9.00;9.00;;;;;31.00;35.73;100910.06;146606;612;46010;-73
2022/07/16 06:38:33;;;;;;;;;11.50;10.50;;;;;31.04;35.67;100907.22;146608;629;46008;-73
2022/07/16 06:41:25;;;;;;;;;11.75;11.50;;;;;31.08;35.33;100910.69;146605;585;46018;-72
2022/07/16 06:44:18;;;;;;;;;9.00;7.00;;;;;31.09;35.46;100903.53;146607;565;47008;-70
2022/07/16 06:47:11;;;;;;;;;11.50;10.00;;;;;31.17;34.53;100906.84;146605;619;46018;-69
2022/07/16 06:50:03;;;;;;;;;11.50;11.50;;;;;31.23;35.59;100904.84;146607;579;45019;-70
2022/07/16 06:52:55;;;;;;;;;9.00;9.00;;;;;31.38;34.76;100903.53;146607;571;46012;-74
2022/07/16 06:55:48;;;;;;;;;10.25;10.25;;;;;31.54;35.11;100905.72;146609;606;46008;-81
2022/07/16 06:58:39;;;;;;;;;8.00;7.00;;;;;31.69;33.75;100903.41;146603;604;46019;-74
2022/07/16 07:01:32;;;;;;;;;12.00;12.00;;;;;31.77;33.44;100899.56;146605;635;46008;-73
2022/07/16 07:04:24;;;;;;;;;13.00;12.25;;;;;31.83;33.55;100896.69;146604;629;46018;-77
2022/07/16 07:07:17;;;;;;;;;12.00;12.00;;;;;31.90;34.05;100899.16;146608;570;46008;-77
2022/07/16 07:10:10;;;;;;;;;10.50;10.50;;;;;31.95;34.59;100890.94;146605;626;46012;-76
2022/07/16 07:13:02;;;;;;;;;11.50;11.50;;;;;32.06;34.71;100904.84;146606;608;46019;-77
2022/07/16 07:15:54;;;;;;;;;8.00;8.00;;;;;32.17;33.58;100897.28;146605;642;46018;-78
2022/07/16 07:18:46;;;;;;;;;13.00;9.25;;;;;32.28;33.74;100901.41;146609;620;46008;-77
2022/07/16 07:21:38;;;;;;;;;10.25;10.25;;;;;32.37;33.51;100899.25;146605;570;46030;-78
2022/07/16 07:24:30;;;;;;;;;13.25;11.00;;;;;32.42;34.24;100907.13;146607;570;46018;-77
2022/07/16 07:27:22;;;;;;;;;9.00;9.00;;;;;32.48;34.22;100908.75;146605;583;46018;-78
2022/07/16 07:30:15;;;;;;;;;9.50;9.00;;;;;32.59;33.74;100898.50;146607;597;46008;-77
2022/07/16 07:33:07;;;;;;;;;11.75;11.00;;;;;32.74;33.20;100908.63;146601;571;46018;-73
2022/07/16 07:35:59;;;;;;;;;10.00;10.00;;;;;32.76;34.23;100903.22;146606;609;46019;-73
2022/07/16 07:38:51;;;;;;;;;9.00;9.00;;;;;32.69;34.15;100902.59;146605;573;46021;-73
2022/07/16 07:41:44;;;;;;;;;11.00;11.00;;;;;32.57;34.47;100895.84;146608;584;47008;-73
2022/07/16 07:44:35;;;;;;;;;11.00;10.00;;;;;32.54;34.58;100909.41;146606;579;46010;-73
2022/07/16 07:47:28;;;;;;;;;11.00;11.00;;;;;32.57;35.26;100903.91;146608;647;46008;-73
2022/07/16 07:50:20;;;;;;;;;13.00;11.25;;;;;32.63;35.89;100903.69;146606;576;46012;-73
2022/07/16 07:53:13;;;;;;;;;11.00;11.00;;;;;32.69;35.77;100916.00;146608;656;46018;-73
2022/07/16 07:56:05;;;;;;;;;11.50;10.75;;;;;32.78;34.42;100893.31;146604;583;46019;-72
2022/07/16 07:58:57;;;;;;;;;11.00;9.00;;;;;32.86;34.96;100891.19;146606;653;46018;-72
2022/07/16 08:01:49;;;;;;;;;11.75;11.75;;;;;32.93;35.43;100897.19;146603;743;46018;-73
2022/07/16 08:04:42;;;;;;;;;10.50;10.50;;;;;32.99;34.59;100894.28;146608;665;46008;-73
2022/07/16 08:07:34;;;;;;;;;9.50;9.50;;;;;33.04;34.10;100895.88;146603;607;46018;-73
2022/07/16 08:10:26;;;;;;;;;11.00;11.00;;;;;33.08;34.77;100897.50;146606;584;46020;-74
2022/07/16 08:13:18;;;;;;;;;8.00;8.00;;;;;33.15;34.42;100894.56;146606;624;46018;-73
2022/07/16 08:16:11;;;;;;;;;10.50;9.50;;;;;33.25;34.30;100899.53;146608;599;46008;-72
2022/07/16 08:19:03;;;;;;;;;9.00;9.00;;;;;33.28;33.79;100891.34;146627;581;45012;-71
2022/07/16 08:21:55;;;;;;;;;10.50;9.50;;;;;33.33;34.43;100899.19;146629;597;45010;-72
2022/07/16 08:27:57;;;;;;;;;8.25;8.25;;;;;33.42;33.97;100893.44;146626;661;45019;-71
2022/07/16 08:30:49;;;;;;;;;10.00;10.00;;;;;33.49;34.23;100891.37;146625;656;45916;-71
2022/07/16 08:33:42;;;;;;;;;11.50;11.00;;;;;33.60;34.12;100893.66;146624;601;46010;-72
2022/07/16 08:36:34;;;;;;;;;8.75;8.75;;;;;33.66;33.45;100890.72;146629;581;45030;-71
2022/07/16 08:39:27;;;;;;;;;11.00;9.50;;;;;33.71;34.28;100889.59;146628;601;45010;-71
2022/07/16 08:42:19;;;;;;;;;11.00;11.00;;;;;33.82;33.53;100885.56;146625;721;45019;-71
2022/07/16 08:45:13;;;;;;;;;12.75;11.00;;;;;33.94;33.35;100887.72;146629;575;45027;-72
2022/07/16 08:48:05;;;;;;;;;10.25;10.25;;;;;34.06;33.16;100886.34;146629;569;45013;-71
2022/07/16 08:50:59;;;;;;;;;9.75;8.75;;;;;34.16;32.38;100882.31;146628;687;45010;-71
2022/07/16 08:53:52;;;;;;;;;7.50;7.25;;;;;34.28;31.57;100884.44;146629;609;45010;-72
2022/07/16 08:56:46;;;;;;;;;10.00;9.25;;;;;34.35;31.44;100885.03;146625;570;46010;-71
2022/07/16 08:59:40;;;;;;;;;10.50;10.50;;;;;34.42;32.15;100882.00;146628;596;45018;-71
2022/07/16 09:02:32;;;;;;;;;11.75;8.25;;;;;34.49;31.63;100878.09;146628;581;45018;-72
2022/07/16 09:05:24;;;;;;;;;8.50;8.50;;;;;34.49;32.77;100888.84;146628;603;45010;-72
2022/07/16 09:08:17;;;;;;;;;9.00;9.00;;;;;34.51;32.15;100887.91;146627;621;45018;-69
2022/07/16 09:11:25;;;;;;;;;9.75;8.50;;;;;34.55;31.69;100881.47;146623;601;46010;-72
2022/07/16 09:14:18;;;;;;;;;11.50;11.50;;;;;34.57;31.09;100882.28;146630;580;45010;-73
2022/07/16 09:17:10;;;;;;;;;10.25;10.25;;;;;34.62;31.85;100891.03;146620;578;45019;-73
2022/07/16 09:20:03;;;;;;;;;10.50;10.50;;;;;34.71;30.59;100887.91;146615;577;46008;-73
2022/07/16 09:22:55;;;;;;;;;10.00;9.50;;;;;34.80;31.86;100892.84;146610;629;46012;-71
2022/07/16 09:26:02;;;;;;;;;9.25;8.50;;;;;34.90;32.81;100877.13;146615;583;47008;-65
2022/07/16 09:28:55;;;;;;;;;12.00;11.00;;;;;34.94;31.82;100882.28;146611;600;46018;-73
2022/07/16 09:31:47;;;;;;;;;10.50;10.50;;;;;35.03;31.42;100883.69;146615;627;45018;-73
2022/07/16 09:34:39;;;;;;;;;13.00;10.75;;;;;35.17;31.21;100885.72;146610;569;46018;-73
2022/07/16 09:37:54;;;;;;;;;11.25;11.00;;;;;35.23;31.39;100881.84;146614;599;46028;-73
2022/07/16 09:40:49;;;;;;;;;8.00;8.00;;;;;35.21;31.75;100879.25;146612;640;46019;-74
2022/07/16 09:43:45;;;;;;;;;9.00;8.25;;;;;35.22;31.04;100880.97;146614;617;46018;-72
2022/07/16 09:46:37;;;;;;;;;12.00;11.50;;;;;35.24;32.10;100871.00;146605;598;47916;-72
2022/07/16 09:49:32;;;;;;;;;11.00;11.00;;;;;35.24;32.27;100871.00;146615;608;46008;-73
2022/07/16 09:52:38;;;;;;;;;10.75;10.75;;;;;35.16;32.45;100875.88;146612;579;46018;-72
2022/07/16 09:55:30;;;;;;;;;9.25;9.25;;;;;35.11;32.11;100876.12;146615;625;46019;-75
2022/07/16 09:58:22;;;;;;;;;11.75;11.00;;;;;35.12;32.16;100883.25;146612;591;46010;-72
2022/07/16 10:01:15;;;;;;;;;11.25;11.25;;;;;35.16;33.57;100882.16;146617;581;46008;-73
2022/07/16 10:04:08;;;;;;;;;13.00;11.75;;;;;35.23;32.30;100874.63;146613;584;45916;-73
2022/07/16 10:07:01;;;;;;;;;12.00;10.75;;;;;35.28;31.28;100879.81;146612;578;46018;-73
2022/07/16 10:09:53;;;;;;;;;12.75;11.00;;;;;35.31;32.14;100875.13;146611;615;46012;-72
2022/07/16 10:12:45;;;;;;;;;9.00;9.00;;;;;35.36;33.32;100872.19;146616;609;45018;-72
2022/07/16 10:15:38;;;;;;;;;11.75;11.00;;;;;35.44;31.53;100871.84;146609;607;46018;-73
2022/07/16 10:18:48;;;;;;;;;10.50;10.50;;;;;35.54;32.24;100870.44;146605;579;46019;-72
2022/07/16 10:21:40;;;;;;;;;12.25;12.00;;;;;35.61;31.79;100871.91;146605;597;46018;-72
2022/07/16 10:24:57;;;;;;;;;12.00;11.00;;;;;35.76;32.25;100872.91;146608;592;46009;-72
2022/07/16 10:27:49;;;;;;;;;11.00;10.00;;;;;35.81;31.17;100862.78;146604;611;46916;-72
2022/07/16 10:30:41;;;;;;;;;10.25;10.00;;;;;35.81;32.24;100863.63;146606;567;46008;-72
2022/07/16 10:33:33;;;;;;;;;11.75;11.75;;;;;35.82;30.95;100865.38;146603;606;46019;-72
2022/07/16 10:36:55;;;;;;;;;12.00;11.75;;;;;34.83;31.62;100693.38;146606;578;47010;-72
2022/07/16 10:40:06;;;;;;;;;12.00;12.00;;;;;35.84;33.10;100862.59;146603;604;46914;-72
2022/07/16 10:43:24;;;;;;;;;13.00;13.00;;;;;35.88;33.65;100861.50;146608;593;46008;-73
2022/07/16 10:46:29;;;;;;;;;10.50;10.50;;;;;35.91;32.41;100852.38;146606;592;46018;-74
2022/07/16 10:49:21;;;;;;;;;10.50;10.00;;;;;35.89;32.22;100863.25;146608;632;46018;-73
2022/07/16 10:52:15;;;;;;;;;11.00;11.00;;;;;35.82;31.39;100859.97;146604;592;46916;-72
2022/07/16 10:55:08;;;;;;;;;10.50;10.50;;;;;35.87;32.09;100854.34;146605;636;46010;-72
2022/07/16 10:58:01;;;;;;;;;12.25;11.00;;;;;35.94;30.39;100861.16;146604;569;46018;-71
2022/07/16 11:00:53;;;;;;;;;9.75;9.75;;;;;35.98;31.96;100857.37;146607;570;46010;-73
2022/07/16 11:03:46;;;;;;;;;11.25;11.00;;;;;36.06;31.32;100854.28;146606;639;46010;-72
2022/07/16 11:06:41;;;;;;;;;13.25;12.50;;;;;36.16;30.38;100851.97;146607;605;46008;-73
2022/07/16 11:09:38;;;;;;;;;9.50;9.50;;;;;36.21;30.81;100852.59;146606;673;46010;-74
2022/07/16 11:12:36;;;;;;;;;10.00;10.00;;;;;36.23;29.64;100851.56;146605;594;46010;-73
2022/07/16 11:15:28;;;;;;;;;8.50;8.25;;;;;36.26;32.01;100850.50;146603;599;46018;-73
2022/07/16 11:18:21;;;;;;;;;11.00;10.75;;;;;36.29;31.08;100856.63;146606;620;46018;-73
2022/07/16 11:21:14;;;;;;;;;15.50;12.75;;;;;36.26;31.39;100856.81;146606;563;46018;-73
2022/07/16 11:24:06;;;;;;;;;10.50;10.00;;;;;36.06;28.94;100846.19;146605;570;46019;-73
2022/07/16 11:27:00;;;;;;;;;11.00;9.00;;;;;35.73;29.16;100840.69;146603;624;46916;-74
2022/07/16 11:30:00;;;;;;;;;12.75;12.75;;;;;35.61;31.08;100848.50;146607;597;46008;-74
2022/07/16 11:32:52;;;;;;;;;13.75;13.75;;;;;35.66;29.59;100841.97;146606;587;46010;-73
2022/07/16 11:35:44;;;;;;;;;10.00;9.50;;;;;35.74;29.88;100840.63;146607;603;46018;-73
2022/07/16 11:38:37;;;;;;;;;7.00;7.00;;;;;35.87;29.23;100834.59;146607;580;46011;-72
2022/07/16 11:41:29;;;;;;;;;13.75;13.00;;;;;36.00;29.09;100839.25;146606;576;46008;-71
2022/07/16 11:44:30;;;;;;;;;10.50;10.50;;;;;36.18;30.37;100837.44;146603;622;46018;-72
2022/07/16 11:47:23;;;;;;;;;10.75;10.75;;;;;36.11;28.00;100837.84;146606;650;46008;-77
2022/07/16 11:50:15;;;;;;;;;10.75;10.25;;;;;36.08;27.61;100845.16;146605;577;46018;-76
2022/07/16 11:53:08;;;;;;;;;7.75;7.75;;;;;35.96;28.80;100834.97;146606;643;46008;-76
2022/07/16 11:55:59;;;;;;;;;12.75;12.00;;;;;35.93;30.33;100837.84;146604;572;46012;-74
2022/07/16 11:58:52;;;;;;;;;10.50;10.50;;;;;36.04;29.94;100840.00;146606;661;46018;-74
2022/07/16 12:01:44;;;;;;;;;12.00;12.00;;;;;36.20;29.91;100838.25;146604;655;46019;-76
2022/07/16 12:04:44;;;;;;;;;12.50;12.00;;;;;36.29;29.74;100840.44;146607;618;45018;-68
2022/07/16 12:07:37;;;;;;;;;12.75;11.50;;;;;36.26;29.25;100840.59;146603;569;47916;-74
2022/07/16 12:10:29;;;;;;;;;10.50;10.50;;;;;36.11;28.83;100840.53;146607;584;46018;-75
2022/07/16 12:13:21;;;;;;;;;12.00;11.00;;;;;36.00;29.54;100836.56;146604;619;46916;-75
2022/07/16 12:16:14;;;;;;;;;11.25;11.00;;;;;35.94;29.68;100842.28;146606;579;47008;-77
2022/07/16 12:19:29;;;;;;;;;10.25;10.25;;;;;35.80;28.75;100832.22;146623;577;46012;-75
2022/07/16 12:22:51;;;;;;;;;8.25;8.25;;;;;35.65;28.82;100835.72;146624;625;45018;-76
2022/07/16 12:25:48;;;;;;;;;12.00;11.00;;;;;35.56;28.48;100844.28;146626;609;45914;-72
2022/07/16 12:28:42;;;;;;;;;9.25;8.50;;;;;35.53;27.99;100836.31;146628;584;45914;-74
2022/07/16 12:31:35;;;;;;;;;10.50;9.50;;;;;35.61;29.70;100839.53;146627;582;46012;-71
2022/07/16 12:34:28;;;;;;;;;10.25;10.25;;;;;35.67;29.23;100839.19;146627;607;46008;-85
2022/07/16 12:37:20;;;;;;;;;10.25;10.25;;;;;35.70;28.72;100843.56;146627;564;45925;-83
2022/07/16 12:40:18;;;;;;;;;11.25;11.25;;;;;35.67;26.42;100835.62;146621;616;46008;-72
2022/07/16 12:43:12;;;;;;;;;9.75;9.00;;;;;35.66;25.11;100842.84;146626;650;46914;-76
2022/07/16 12:46:06;;;;;;;;;8.00;8.00;;;;;35.68;27.73;100829.28;146629;599;45019;-76
2022/07/16 12:49:02;;;;;;;;;10.75;10.75;;;;;35.72;28.01;100820.94;146629;590;44021;-73
2022/07/16 12:52:00;;;;;;;;;11.25;10.75;;;;;35.90;27.77;100829.03;146625;576;46008;-78
2022/07/16 13:01:24;;;;;;;;;9.75;9.00;;;;;35.93;27.39;100831.59;146628;617;46010;-72
2022/07/16 13:04:18;;;;;;;;;9.75;8.75;;;;;35.97;26.24;100819.66;146631;580;45010;-71
2022/07/16 13:07:10;;;;;;;;;4.00;4.00;;;;;36.00;28.41;100835.69;146628;615;45914;-74
2022/07/16 13:10:02;;;;;;;;;10.50;10.50;;;;;35.96;29.04;100828.72;146629;607;45018;-73
2022/07/16 13:12:59;;;;;;;;;9.25;8.00;;;;;35.88;27.87;100825.53;146626;572;45914;-76
2022/07/16 13:15:51;;;;;;;;;10.00;9.75;;;;;35.79;27.69;100819.66;146629;594;45019;-76
2022/07/16 13:18:42;;;;;;;;;8.50;8.50;;;;;35.75;27.98;100820.78;146607;574;46018;-73
2022/07/16 13:21:36;;;;;;;;;10.50;10.50;;;;;35.75;28.94;100818.09;146606;570;46019;-74
2022/07/16 13:24:28;;;;;;;;;10.00;9.50;;;;;35.73;29.16;100808.31;146603;564;46018;-71
2022/07/16 13:27:20;;;;;;;;;9.25;9.25;;;;;35.71;28.37;100823.75;146609;584;46008;-73
2022/07/16 13:30:13;;;;;;;;;10.25;10.25;;;;;35.59;29.16;100826.09;146602;584;46019;-74
2022/07/16 13:33:06;;;;;;;;;9.00;9.00;;;;;35.50;29.38;100820.28;146605;594;47010;-70
2022/07/16 13:35:58;;;;;;;;;11.25;10.50;;;;;35.43;29.39;100818.88;146604;590;46018;-73
2022/07/16 13:38:51;;;;;;;;;10.25;10.25;;;;;35.36;30.87;100818.28;146606;602;46018;-70